EmailTwitter


Observations de surface / Québec / CYQB (71714)

Régions: Québec | Canada | États-Unis | Europe | France | UK | Ailleurs
Station
Affichage
Infos & localisation pour CYQB (71714) | Aide pour décoder les METARs

Observations prises le 2019-01-16 à 08H00 UTC à QUEBEC A, QB (CYQB)

Etat du ciel: couvert.

Obstacle(s) à la visibilité: faible neige.

Température: -9.0 Celsius

Point de rosée: -11.0 Celsius

Humidité relative: 85%

Facteur vent: -14.

Vents: Nord-est à 11 km/h ou 6 noeuds.

Pression au niveau moyen de la mer: 101.14 kilopascals.

Calage altimétrique: 101.08 kilopascals ou 29.85 pouces de mercure.

Visibilité horizontale: 4.00 milles terrestres ou 6.40 kilomètres.

Hauteur du plafond: 457 mètres ( 1500 pieds ).

Observation METAR:

CYQB 160800Z 05006KT 4SM -SN OVC015 M09/M11 A2985 RMK SC8 FROIN SLP114=